Time;durP1;ratioP1;P1;durP2;ratioP2;P2;SDS_P1;SDS_P2;PMS_P1;PMS_P2;Temp;Humidity;BMP_temperature;BMP_pressure;BME280_temperature;BME280_humidity;BME280_pressure;Samples;Min_cycle;Max_cycle;Signal;HPM_P1;HPM_P2
2023/09/22 05:17:59;;;;;;;;;;;;;;;;;;5067767;28;19978;-44
2023/09/22 05:20:24;;;;;;;;;;;;;;;;;;5071460;28;19924;-44
2023/09/22 05:22:50;;;;;;;;;;;;;;;;;;5059214;28;19995;-43
2023/09/22 05:25:16;;;;;;;;;;;;;;;;;;5052220;28;19913;-44
2023/09/22 05:27:42;;;;;;;;;;;;;;;;;;5072116;28;19908;-43
2023/09/22 05:30:08;;;;;;;;;;;;;;;;;;5067238;28;19919;-43
2023/09/22 05:35:20;;;;;;;;;;;;;;;;;;5071534;28;20343;-44
2023/09/22 05:37:46;;;;;;;;;;;;;;;;;;5071249;28;20303;-44
2023/09/22 05:40:12;;;;;;;;;;;;;;;;;;5051845;28;19912;-44
2023/09/22 05:42:38;;;;;;;;;;;;;;;;;;5051777;28;19916;-44
2023/09/22 05:45:04;;;;;;;;;;;;;;;;;;5051118;28;19915;-44
2023/09/22 05:47:30;;;;;;;;;;;;;;;;;;5050340;28;20008;-44
2023/09/22 05:49:56;;;;;;;;;;;;;;;;;;5059768;28;19917;-43
2023/09/22 05:52:22;;;;;;;;;;;;;;;;;;5072056;28;19909;-44
2023/09/22 05:54:48;;;;;;;;;;;;;;;;;;5071942;28;19909;-44
2023/09/22 05:57:13;;;;;;;;;;;;;;;;;;5072178;28;20340;-44
2023/09/22 05:59:39;;;;;;;;;;;;;;;;;;5072251;28;20314;-44
2023/09/22 06:02:05;;;;;;;;;;;;;;;;;;5068081;28;20050;-44
2023/09/22 06:04:32;;;;;;;;;;;;;;;;;;5061391;28;19962;-46
2023/09/22 06:06:58;;;;;;;;;;;;;;;;;;5059377;28;20433;-44
2023/09/22 06:09:24;;;;;;;;;;;;;;;;;;5060666;28;19996;-45
2023/09/22 06:11:50;;;;;;;;;;;;;;;;;;5050538;28;20011;-44
2023/09/22 06:14:16;;;;;;;;;;;;;;;;;;5050275;28;19920;-45
2023/09/22 06:16:42;;;;;;;;;;;;;;;;;;5066513;28;19912;-44
2023/09/22 06:19:10;;;;;;;;;;;;;;;;;;5065596;28;19916;-46
2023/09/22 06:21:36;;;;;;;;;;;;;;;;;;5058069;28;20349;-44
2023/09/22 06:24:02;;;;;;;;;;;;;;;;;;5065474;28;19912;-44
2023/09/22 06:26:28;;;;;;;;;;;;;;;;;;5064918;28;19967;-44
2023/09/22 06:28:54;;;;;;;;;;;;;;;;;;5058816;28;19920;-45
2023/09/22 06:31:20;;;;;;;;;;;;;;;;;;5069305;28;19917;-45
2023/09/22 06:33:45;;;;;;;;;;;;;;;;;;5071342;28;20082;-46
2023/09/22 06:36:11;;;;;;;;;;;;;;;;;;5070496;28;19913;-45
2023/09/22 06:38:37;;;;;;;;;;;;;;;;;;5070842;28;19917;-44
2023/09/22 06:41:04;;;;;;;;;;;;;;;;;;5071020;28;19916;-45
2023/09/22 06:43:30;;;;;;;;;;;;;;;;;;5070464;28;19919;-46
2023/09/22 06:45:58;;;;;;;;;;;;;;;;;;5070694;28;19940;-44
2023/09/22 06:48:27;;;;;;;;;;;;;;;;;;5050996;28;20381;-45
2023/09/22 06:50:53;;;;;;;;;;;;;;;;;;5054571;28;19913;-44
2023/09/22 06:53:19;;;;;;;;;;;;;;;;;;5070894;28;20496;-45
2023/09/22 06:55:45;;;;;;;;;;;;;;;;;;5070762;28;20350;-44
2023/09/22 06:58:11;;;;;;;;;;;;;;;;;;5070849;28;19919;-48
2023/09/22 07:00:37;;;;;;;;;;;;;;;;;;5071043;28;20262;-48
2023/09/22 07:03:02;;;;;;;;;;;;;;;;;;5070487;28;19908;-45
2023/09/22 07:05:28;;;;;;;;;;;;;;;;;;5070774;28;19912;-45
2023/09/22 07:07:54;;;;;;;;;;;;;;;;;;5070458;28;19935;-44
2023/09/22 07:10:20;;;;;;;;;;;;;;;;;;5070762;28;19915;-47
2023/09/22 07:12:46;;;;;;;;;;;;;;;;;;5070202;28;19969;-45
2023/09/22 07:15:12;;;;;;;;;;;;;;;;;;5071072;28;19915;-45
2023/09/22 07:17:38;;;;;;;;;;;;;;;;;;5070416;28;20352;-44
2023/09/22 07:20:04;;;;;;;;;;;;;;;;;;5069712;28;20421;-45
2023/09/22 07:22:30;;;;;;;;;;;;;;;;;;5070503;28;19915;-44
2023/09/22 07:24:56;;;;;;;;;;;;;;;;;;5070161;28;19916;-45
2023/09/22 07:27:23;;;;;;;;;;;;;;;;;;5069594;28;19913;-45
2023/09/22 07:29:50;;;;;;;;;;;;;;;;;;5069730;28;19912;-45
2023/09/22 07:32:16;;;;;;;;;;;;;;;;;;5069870;28;20594;-46
2023/09/22 07:34:42;;;;;;;;;;;;;;;;;;5068497;28;20010;-45
2023/09/22 07:37:11;;;;;;;;;;;;;;;;;;5067360;28;19912;-46
2023/09/22 07:39:37;;;;;;;;;;;;;;;;;;5067450;28;19912;-46
2023/09/22 07:42:03;;;;;;;;;;;;;;;;;;5067468;28;19916;-45
2023/09/22 07:44:29;;;;;;;;;;;;;;;;;;5068722;28;19915;-46
2023/09/22 07:46:58;;;;;;;;;;;;;;;;;;5058909;28;19909;-45
2023/09/22 07:49:24;;;;;;;;;;;;;;;;;;5049060;28;19920;-46
2023/09/22 07:51:49;;;;;;;;;;;;;;;;;;5048318;28;19908;-44
2023/09/22 07:54:15;;;;;;;;;;;;;;;;;;5049623;28;20283;-44
2023/09/22 07:56:42;;;;;;;;;;;;;;;;;;5068090;28;19913;-48
2023/09/22 07:59:08;;;;;;;;;;;;;;;;;;5066736;28;19917;-46
2023/09/22 08:01:34;;;;;;;;;;;;;;;;;;5066768;28;19978;-44
2023/09/22 08:04:00;;;;;;;;;;;;;;;;;;5067358;28;19951;-46
2023/09/22 08:06:27;;;;;;;;;;;;;;;;;;5068704;28;20004;-47
2023/09/22 08:08:53;;;;;;;;;;;;;;;;;;5067906;28;20333;-46
2023/09/22 08:11:18;;;;;;;;;;;;;;;;;;5070271;28;19912;-48
2023/09/22 08:13:45;;;;;;;;;;;;;;;;;;5071131;28;19919;-45
2023/09/22 08:16:11;;;;;;;;;;;;;;;;;;5071679;28;20371;-45
2023/09/22 08:18:40;;;;;;;;;;;;;;;;;;5053636;28;19923;-48
2023/09/22 08:21:06;;;;;;;;;;;;;;;;;;5072122;28;19992;-46
2023/09/22 08:23:32;;;;;;;;;;;;;;;;;;5071275;28;20034;-45
2023/09/22 08:25:57;;;;;;;;;;;;;;;;;;5071312;28;19913;-46
2023/09/22 08:28:25;;;;;;;;;;;;;;;;;;5071760;28;19958;-49
2023/09/22 08:30:51;;;;;;;;;;;;;;;;;;5071781;28;19913;-44
2023/09/22 08:33:17;;;;;;;;;;;;;;;;;;5071769;28;19913;-46
2023/09/22 08:35:43;;;;;;;;;;;;;;;;;;5071894;28;20271;-47
2023/09/22 08:38:09;;;;;;;;;;;;;;;;;;5071505;28;19908;-46
2023/09/22 08:40:35;;;;;;;;;;;;;;;;;;5071674;28;19956;-47
2023/09/22 08:43:02;;;;;;;;;;;;;;;;;;5071802;28;19909;-47
2023/09/22 08:45:28;;;;;;;;;;;;;;;;;;5072163;28;19969;-44
2023/09/22 08:47:54;;;;;;;;;;;;;;;;;;5072178;28;20352;-45
2023/09/22 08:50:20;;;;;;;;;;;;;;;;;;5071473;28;19948;-47
2023/09/22 08:52:51;;;;;;;;;;;;;;;;;;5071667;28;19909;-46
2023/09/22 08:55:16;;;;;;;;;;;;;;;;;;5071680;28;19950;-44
2023/09/22 08:57:44;;;;;;;;;;;;;;;;;;5071623;28;19949;-45
2023/09/22 09:00:12;;;;;;;;;;;;;;;;;;5071388;28;19971;-45
2023/09/22 09:02:38;;;;;;;;;;;;;;;;;;5071486;28;20441;-45
2023/09/22 09:05:04;;;;;;;;;;;;;;;;;;5071550;28;19995;-45
2023/09/22 09:07:31;;;;;;;;;;;;;;;;;;5071317;28;20002;-44
2023/09/22 09:09:58;;;;;;;;;;;;;;;;;;5072198;28;19955;-45
2023/09/22 09:12:25;;;;;;;;;;;;;;;;;;5071984;28;19991;-45
2023/09/22 09:14:51;;;;;;;;;;;;;;;;;;5071315;28;19917;-46
2023/09/22 09:17:17;;;;;;;;;;;;;;;;;;5071094;28;19909;-45
2023/09/22 09:19:43;;;;;;;;;;;;;;;;;;5070911;28;19920;-44
2023/09/22 09:22:09;;;;;;;;;;;;;;;;;;5069694;28;19916;-46
2023/09/22 09:24:35;;;;;;;;;;;;;;;;;;5070444;28;19920;-45
2023/09/22 09:27:02;;;;;;;;;;;;;;;;;;5071134;28;20375;-47
2023/09/22 09:29:28;;;;;;;;;;;;;;;;;;5071581;28;19909;-45
2023/09/22 09:31:55;;;;;;;;;;;;;;;;;;5069922;28;19923;-45
2023/09/22 09:34:23;;;;;;;;;;;;;;;;;;5070268;28;20403;-45
2023/09/22 09:36:49;;;;;;;;;;;;;;;;;;5070620;28;19909;-45
2023/09/22 09:39:17;;;;;;;;;;;;;;;;;;5070962;28;20351;-45
2023/09/22 09:41:43;;;;;;;;;;;;;;;;;;5070927;28;19916;-46
2023/09/22 09:44:09;;;;;;;;;;;;;;;;;;5070719;28;19967;-44
2023/09/22 09:46:36;;;;;;;;;;;;;;;;;;5071282;28;20283;-46
2023/09/22 09:49:01;;;;;;;;;;;;;;;;;;5070456;28;19916;-48
2023/09/22 09:51:27;;;;;;;;;;;;;;;;;;5070206;28;19920;-44
2023/09/22 09:53:53;;;;;;;;;;;;;;;;;;5070189;28;19917;-46
2023/09/22 09:56:19;;;;;;;;;;;;;;;;;;5070480;28;20363;-48
2023/09/22 09:58:45;;;;;;;;;;;;;;;;;;5069232;28;19916;-45
2023/09/22 10:01:11;;;;;;;;;;;;;;;;;;5069715;28;19915;-47
2023/09/22 10:03:39;;;;;;;;;;;;;;;;;;5070175;28;20363;-49
2023/09/22 10:06:06;;;;;;;;;;;;;;;;;;5070406;28;19909;-47
2023/09/22 10:08:32;;;;;;;;;;;;;;;;;;5069694;28;19952;-48
2023/09/22 10:10:59;;;;;;;;;;;;;;;;;;5069449;28;20455;-48
2023/09/22 10:13:24;;;;;;;;;;;;;;;;;;5069687;28;19908;-47
2023/09/22 10:15:51;;;;;;;;;;;;;;;;;;5069921;28;19999;-46
2023/09/22 10:18:17;;;;;;;;;;;;;;;;;;5069680;28;19908;-46
2023/09/22 10:20:44;;;;;;;;;;;;;;;;;;5051633;28;20306;-45
2023/09/22 10:23:10;;;;;;;;;;;;;;;;;;5069332;28;19917;-46
2023/09/22 10:25:36;;;;;;;;;;;;;;;;;;5070520;28;19962;-47
2023/09/22 10:28:04;;;;;;;;;;;;;;;;;;5069887;28;19909;-48
2023/09/22 10:30:30;;;;;;;;;;;;;;;;;;5069103;28;19917;-45
2023/09/22 10:32:56;;;;;;;;;;;;;;;;;;5069552;28;19913;-44
2023/09/22 10:35:22;;;;;;;;;;;;;;;;;;5069071;28;19920;-46
2023/09/22 10:37:48;;;;;;;;;;;;;;;;;;5069649;28;20393;-47
2023/09/22 10:40:19;;;;;;;;;;;;;;;;;;5069749;28;20011;-46
2023/09/22 10:42:46;;;;;;;;;;;;;;;;;;5069656;28;19955;-48
2023/09/22 10:45:11;;;;;;;;;;;;;;;;;;5069365;28;19931;-46
2023/09/22 10:47:37;;;;;;;;;;;;;;;;;;5069705;28;20351;-46
2023/09/22 10:50:03;;;;;;;;;;;;;;;;;;5069246;28;20285;-47
2023/09/22 10:52:29;;;;;;;;;;;;;;;;;;5069417;28;19909;-47
2023/09/22 10:54:55;;;;;;;;;;;;;;;;;;5069097;28;19909;-45
2023/09/22 10:57:21;;;;;;;;;;;;;;;;;;5068372;28;19912;-46
2023/09/22 10:59:47;;;;;;;;;;;;;;;;;;5067136;28;20057;-47
2023/09/22 11:02:13;;;;;;;;;;;;;;;;;;5067117;28;19940;-46
2023/09/22 11:04:39;;;;;;;;;;;;;;;;;;5068024;28;19913;-46
2023/09/22 11:07:05;;;;;;;;;;;;;;;;;;5067918;28;19909;-49
2023/09/22 11:09:30;;;;;;;;;;;;;;;;;;5067279;28;19913;-49
2023/09/22 11:11:56;;;;;;;;;;;;;;;;;;5067984;28;19912;-46
2023/09/22 11:14:22;;;;;;;;;;;;;;;;;;5066851;28;19951;-46
2023/09/22 11:16:49;;;;;;;;;;;;;;;;;;5067974;28;19909;-46
2023/09/22 11:19:14;;;;;;;;;;;;;;;;;;5067529;28;19916;-45
2023/09/22 11:21:46;;;;;;;;;;;;;;;;;;5068674;28;20256;-46
2023/09/22 11:24:12;;;;;;;;;;;;;;;;;;5068065;28;19953;-44
2023/09/22 11:26:38;;;;;;;;;;;;;;;;;;5068267;28;19908;-45
2023/09/22 11:29:04;;;;;;;;;;;;;;;;;;5066302;28;20378;-47
2023/09/22 11:31:32;;;;;;;;;;;;;;;;;;5068385;28;19909;-47
2023/09/22 11:33:58;;;;;;;;;;;;;;;;;;5067553;28;19909;-46
2023/09/22 11:36:24;;;;;;;;;;;;;;;;;;5067614;28;19916;-46
2023/09/22 11:38:50;;;;;;;;;;;;;;;;;;5050115;28;19912;-46
2023/09/22 11:41:16;;;;;;;;;;;;;;;;;;5067663;28;19909;-46
2023/09/22 11:43:42;;;;;;;;;;;;;;;;;;5067163;28;20005;-48
2023/09/22 11:46:08;;;;;;;;;;;;;;;;;;5067069;28;20005;-45
2023/09/22 11:48:34;;;;;;;;;;;;;;;;;;5067501;28;19958;-47
2023/09/22 11:51:01;;;;;;;;;;;;;;;;;;5067500;28;19909;-48
2023/09/22 11:53:27;;;;;;;;;;;;;;;;;;5067453;28;20227;-48
2023/09/22 11:55:52;;;;;;;;;;;;;;;;;;5067520;28;19908;-45
2023/09/22 11:58:18;;;;;;;;;;;;;;;;;;5067755;28;20007;-45
2023/09/22 12:00:45;;;;;;;;;;;;;;;;;;5067195;28;19908;-45
2023/09/22 12:03:10;;;;;;;;;;;;;;;;;;5067568;28;20012;-46
2023/09/22 12:05:37;;;;;;;;;;;;;;;;;;5067302;28;20430;-45
2023/09/22 12:08:02;;;;;;;;;;;;;;;;;;5067444;28;19909;-48
2023/09/22 12:10:28;;;;;;;;;;;;;;;;;;5067213;28;20410;-48
2023/09/22 12:12:54;;;;;;;;;;;;;;;;;;5067253;28;19908;-47
2023/09/22 12:15:20;;;;;;;;;;;;;;;;;;5067822;28;19912;-45
2023/09/22 12:17:46;;;;;;;;;;;;;;;;;;5067116;28;19908;-49
2023/09/22 12:20:12;;;;;;;;;;;;;;;;;;5066924;28;19916;-46
2023/09/22 12:22:38;;;;;;;;;;;;;;;;;;5067261;28;19916;-49
2023/09/22 12:25:04;;;;;;;;;;;;;;;;;;5067486;28;19908;-45
2023/09/22 12:27:30;;;;;;;;;;;;;;;;;;5066839;28;19908;-48
2023/09/22 12:29:56;;;;;;;;;;;;;;;;;;5067018;28;19962;-48
2023/09/22 12:32:22;;;;;;;;;;;;;;;;;;5067761;28;20007;-46
2023/09/22 12:34:48;;;;;;;;;;;;;;;;;;5067069;28;19939;-45
2023/09/22 12:37:14;;;;;;;;;;;;;;;;;;5067020;28;19915;-48
2023/09/22 12:39:40;;;;;;;;;;;;;;;;;;5066981;28;19936;-46
2023/09/22 12:42:06;;;;;;;;;;;;;;;;;;5067073;28;20310;-47
2023/09/22 12:44:33;;;;;;;;;;;;;;;;;;5067515;28;20103;-47
2023/09/22 12:46:59;;;;;;;;;;;;;;;;;;5066943;28;19991;-46
2023/09/22 12:49:25;;;;;;;;;;;;;;;;;;5066900;28;19940;-45
2023/09/22 12:51:51;;;;;;;;;;;;;;;;;;5067492;28;19912;-46
2023/09/22 12:54:17;;;;;;;;;;;;;;;;;;5066853;28;19908;-46
2023/09/22 12:56:44;;;;;;;;;;;;;;;;;;5069266;28;19909;-46
2023/09/22 12:59:10;;;;;;;;;;;;;;;;;;5070201;28;19962;-46
2023/09/22 13:01:36;;;;;;;;;;;;;;;;;;5070214;28;19909;-46
2023/09/22 13:04:01;;;;;;;;;;;;;;;;;;5052440;28;20003;-46
2023/09/22 13:06:27;;;;;;;;;;;;;;;;;;5069975;28;19924;-48
2023/09/22 13:08:54;;;;;;;;;;;;;;;;;;5070784;28;19919;-48
2023/09/22 13:11:20;;;;;;;;;;;;;;;;;;5070769;28;19962;-47
2023/09/22 13:13:47;;;;;;;;;;;;;;;;;;5070051;28;19951;-47
2023/09/22 13:16:14;;;;;;;;;;;;;;;;;;5070016;28;20367;-48
2023/09/22 13:18:39;;;;;;;;;;;;;;;;;;5069984;28;20405;-46
2023/09/22 13:21:05;;;;;;;;;;;;;;;;;;5069989;28;19912;-44
2023/09/22 13:23:31;;;;;;;;;;;;;;;;;;5069976;28;19944;-47
2023/09/22 13:25:57;;;;;;;;;;;;;;;;;;5069800;28;20291;-47
2023/09/22 13:28:23;;;;;;;;;;;;;;;;;;5070494;28;19913;-44
2023/09/22 13:30:53;;;;;;;;;;;;;;;;;;5069508;28;19952;-45
2023/09/22 13:33:20;;;;;;;;;;;;;;;;;;5070092;28;19931;-47
2023/09/22 13:35:48;;;;;;;;;;;;;;;;;;5069749;28;19941;-46
2023/09/22 13:38:15;;;;;;;;;;;;;;;;;;5069452;28;19912;-46
2023/09/22 13:40:42;;;;;;;;;;;;;;;;;;5069521;28;19952;-46
2023/09/22 13:43:08;;;;;;;;;;;;;;;;;;5069595;28;19915;-45
2023/09/22 13:45:36;;;;;;;;;;;;;;;;;;5069386;28;19912;-48
2023/09/22 13:48:03;;;;;;;;;;;;;;;;;;5069554;28;19909;-46
2023/09/22 13:50:29;;;;;;;;;;;;;;;;;;5051298;28;19912;-49
2023/09/22 13:52:55;;;;;;;;;;;;;;;;;;5070175;28;19915;-50
2023/09/22 13:55:21;;;;;;;;;;;;;;;;;;5069532;28;19909;-49
2023/09/22 13:57:47;;;;;;;;;;;;;;;;;;5069204;28;19943;-49
2023/09/22 14:00:13;;;;;;;;;;;;;;;;;;5069351;28;20340;-47
2023/09/22 14:02:39;;;;;;;;;;;;;;;;;;5069001;28;19908;-49
2023/09/22 14:05:05;;;;;;;;;;;;;;;;;;5069196;28;19962;-50
2023/09/22 14:07:31;;;;;;;;;;;;;;;;;;5068201;28;20050;-49
2023/09/22 14:09:57;;;;;;;;;;;;;;;;;;5069887;28;19916;-50
2023/09/22 14:12:23;;;;;;;;;;;;;;;;;;5069110;28;19912;-46
2023/09/22 14:14:48;;;;;;;;;;;;;;;;;;5068867;28;19912;-50
2023/09/22 14:17:15;;;;;;;;;;;;;;;;;;5068964;28;19909;-51
2023/09/22 14:19:41;;;;;;;;;;;;;;;;;;5068721;28;19922;-49
2023/09/22 14:22:07;;;;;;;;;;;;;;;;;;5068737;28;19912;-50
2023/09/22 14:24:34;;;;;;;;;;;;;;;;;;5068228;28;20403;-48
2023/09/22 14:27:00;;;;;;;;;;;;;;;;;;5068496;28;19908;-48
2023/09/22 14:29:26;;;;;;;;;;;;;;;;;;5069390;28;19999;-49
2023/09/22 14:31:52;;;;;;;;;;;;;;;;;;5068560;28;20351;-47
2023/09/22 14:34:18;;;;;;;;;;;;;;;;;;5068657;28;20014;-51
2023/09/22 14:36:44;;;;;;;;;;;;;;;;;;5068297;28;19908;-46
2023/09/22 14:39:10;;;;;;;;;;;;;;;;;;5068305;28;20163;-49
2023/09/22 14:41:36;;;;;;;;;;;;;;;;;;5068382;28;20462;-47
2023/09/22 14:44:02;;;;;;;;;;;;;;;;;;5068339;28;19986;-47
2023/09/22 14:46:28;;;;;;;;;;;;;;;;;;5068984;28;19908;-47
2023/09/22 14:48:54;;;;;;;;;;;;;;;;;;5068325;28;19962;-47
2023/09/22 14:51:20;;;;;;;;;;;;;;;;;;5068111;28;19912;-46
2023/09/22 14:53:46;;;;;;;;;;;;;;;;;;5068404;28;19940;-46
2023/09/22 14:56:12;;;;;;;;;;;;;;;;;;5067957;28;20035;-45
2023/09/22 14:58:38;;;;;;;;;;;;;;;;;;5068031;28;19909;-42
2023/09/22 15:01:04;;;;;;;;;;;;;;;;;;5068115;28;20390;-43
2023/09/22 15:03:31;;;;;;;;;;;;;;;;;;5068589;28;19969;-44
2023/09/22 15:05:57;;;;;;;;;;;;;;;;;;5068588;28;19931;-44
2023/09/22 15:08:23;;;;;;;;;;;;;;;;;;5049949;28;19912;-45
2023/09/22 15:10:50;;;;;;;;;;;;;;;;;;5067989;28;19908;-41
2023/09/22 15:13:16;;;;;;;;;;;;;;;;;;5067843;28;19931;-45
2023/09/22 15:15:43;;;;;;;;;;;;;;;;;;5067586;28;19916;-43
2023/09/22 15:18:08;;;;;;;;;;;;;;;;;;5067108;28;19916;-43
2023/09/22 15:20:34;;;;;;;;;;;;;;;;;;5067087;28;20356;-44
2023/09/22 15:23:00;;;;;;;;;;;;;;;;;;5067785;28;19934;-41
2023/09/22 15:25:26;;;;;;;;;;;;;;;;;;5067387;28;19909;-42
2023/09/22 15:27:52;;;;;;;;;;;;;;;;;;5066040;28;19920;-42
2023/09/22 15:30:18;;;;;;;;;;;;;;;;;;5067520;28;20371;-42
2023/09/22 15:32:44;;;;;;;;;;;;;;;;;;5067324;28;19920;-42
2023/09/22 15:35:10;;;;;;;;;;;;;;;;;;5053209;28;19979;-46
2023/09/22 15:37:36;;;;;;;;;;;;;;;;;;5058054;28;19917;-43
2023/09/22 15:40:02;;;;;;;;;;;;;;;;;;5056869;28;19912;-42
2023/09/22 15:42:28;;;;;;;;;;;;;;;;;;5067686;28;19981;-42
2023/09/22 15:44:54;;;;;;;;;;;;;;;;;;5067557;28;20275;-42
2023/09/22 15:47:20;;;;;;;;;;;;;;;;;;5067257;28;19909;-45
2023/09/22 15:49:46;;;;;;;;;;;;;;;;;;5064815;28;19984;-45
2023/09/22 15:52:12;;;;;;;;;;;;;;;;;;5065571;28;19927;-45
2023/09/22 15:54:39;;;;;;;;;;;;;;;;;;5065698;28;20418;-45
2023/09/22 15:57:04;;;;;;;;;;;;;;;;;;5066091;28;19909;-45
2023/09/22 15:59:30;;;;;;;;;;;;;;;;;;5067061;28;19912;-45
2023/09/22 16:01:56;;;;;;;;;;;;;;;;;;5066221;28;19913;-46
2023/09/22 16:04:22;;;;;;;;;;;;;;;;;;5047142;28;19912;-43
2023/09/22 16:06:48;;;;;;;;;;;;;;;;;;5065918;28;19934;-43
2023/09/22 16:09:14;;;;;;;;;;;;;;;;;;5065554;28;19913;-44
2023/09/22 16:11:40;;;;;;;;;;;;;;;;;;5066154;28;19913;-43
2023/09/22 16:14:06;;;;;;;;;;;;;;;;;;5065899;28;20128;-46
2023/09/22 16:16:34;;;;;;;;;;;;;;;;;;5066304;28;20010;-43
2023/09/22 16:19:00;;;;;;;;;;;;;;;;;;5066100;28;20359;-43
2023/09/22 16:21:26;;;;;;;;;;;;;;;;;;5066150;28;19978;-42
2023/09/22 16:23:52;;;;;;;;;;;;;;;;;;5065756;28;19908;-43
2023/09/22 16:26:18;;;;;;;;;;;;;;;;;;5065735;28;19999;-42
2023/09/22 16:28:44;;;;;;;;;;;;;;;;;;5065607;28;20386;-42
2023/09/22 16:31:10;;;;;;;;;;;;;;;;;;5049036;28;20391;-42
2023/09/22 16:33:36;;;;;;;;;;;;;;;;;;5069398;28;20007;-42
2023/09/22 16:36:11;;;;;;;;;;;;;;;;;;5069696;28;19935;-43
2023/09/22 16:38:37;;;;;;;;;;;;;;;;;;5069395;28;20337;-39
2023/09/22 16:41:05;;;;;;;;;;;;;;;;;;5069707;28;19954;-39
2023/09/22 16:43:32;;;;;;;;;;;;;;;;;;5070056;28;19915;-39
2023/09/22 16:45:58;;;;;;;;;;;;;;;;;;5069161;28;19958;-39
2023/09/22 16:48:25;;;;;;;;;;;;;;;;;;5060535;28;19976;-39
2023/09/22 16:50:51;;;;;;;;;;;;;;;;;;5059724;28;19912;-39
2023/09/22 16:53:17;;;;;;;;;;;;;;;;;;5050531;28;19909;-39
2023/09/22 16:55:43;;;;;;;;;;;;;;;;;;5050082;28;20077;-40
2023/09/22 16:58:12;;;;;;;;;;;;;;;;;;5068678;28;19909;-39
2023/09/22 17:00:38;;;;;;;;;;;;;;;;;;5051025;28;19923;-39
2023/09/22 17:03:05;;;;;;;;;;;;;;;;;;5068521;28;20295;-39
2023/09/22 17:05:31;;;;;;;;;;;;;;;;;;5051313;28;19908;-39
2023/09/22 17:07:57;;;;;;;;;;;;;;;;;;5067437;28;19919;-39
2023/09/22 17:10:23;;;;;;;;;;;;;;;;;;5050784;28;20414;-39
2023/09/22 17:12:49;;;;;;;;;;;;;;;;;;5051056;28;19919;-40
2023/09/22 17:15:15;;;;;;;;;;;;;;;;;;5068128;28;19989;-39
2023/09/22 17:17:41;;;;;;;;;;;;;;;;;;5068847;28;19913;-39
2023/09/22 17:20:07;;;;;;;;;;;;;;;;;;5068637;28;19959;-39
2023/09/22 17:22:33;;;;;;;;;;;;;;;;;;5056246;28;19916;-39
2023/09/22 17:24:59;;;;;;;;;;;;;;;;;;5068152;28;19913;-39
2023/09/22 17:27:25;;;;;;;;;;;;;;;;;;5058679;28;19936;-39
2023/09/22 17:29:52;;;;;;;;;;;;;;;;;;5044804;28;19947;-39
2023/09/22 17:32:18;;;;;;;;;;;;;;;;;;5067779;28;20000;-44
2023/09/22 17:34:44;;;;;;;;;;;;;;;;;;5047250;28;20405;-46
2023/09/22 17:37:10;;;;;;;;;;;;;;;;;;5048282;28;19913;-43
2023/09/22 17:39:36;;;;;;;;;;;;;;;;;;5048561;28;19913;-44
2023/09/22 17:42:02;;;;;;;;;;;;;;;;;;5047750;28;19980;-46
2023/09/22 17:44:28;;;;;;;;;;;;;;;;;;5049405;28;19925;-43
2023/09/22 17:46:56;;;;;;;;;;;;;;;;;;5064151;28;20268;-45
2023/09/22 17:49:22;;;;;;;;;;;;;;;;;;5068203;28;19909;-44
2023/09/22 17:51:48;;;;;;;;;;;;;;;;;;5050205;28;19909;-47
2023/09/22 17:54:14;;;;;;;;;;;;;;;;;;5067698;28;19912;-44
2023/09/22 17:56:40;;;;;;;;;;;;;;;;;;5049156;28;19935;-45
2023/09/22 19:35:13;;;;;;;;;;;;;;;;;;5070207;28;19916;-46
2023/09/22 19:37:39;;;;;;;;;;;;;;;;;;5051700;28;20347;-47
2023/09/22 19:40:14;;;;;;;;;;;;;;;;;;5070141;28;19959;-46
2023/09/22 19:42:41;;;;;;;;;;;;;;;;;;5052181;28;20000;-47
2023/09/22 19:45:07;;;;;;;;;;;;;;;;;;5070498;28;19908;-47
2023/09/22 19:47:35;;;;;;;;;;;;;;;;;;5070544;28;20339;-46
2023/09/22 19:50:01;;;;;;;;;;;;;;;;;;5070485;28;19986;-46
2023/09/22 19:52:27;;;;;;;;;;;;;;;;;;5070496;28;20359;-45
2023/09/22 19:54:53;;;;;;;;;;;;;;;;;;5070025;28;19920;-46
2023/09/22 19:57:19;;;;;;;;;;;;;;;;;;5070092;28;19951;-44
2023/09/22 19:59:45;;;;;;;;;;;;;;;;;;5070334;28;19920;-45
2023/09/22 20:02:11;;;;;;;;;;;;;;;;;;5070365;28;19909;-46
2023/09/22 20:04:37;;;;;;;;;;;;;;;;;;5070413;28;19935;-46
2023/09/22 20:07:03;;;;;;;;;;;;;;;;;;5074130;28;19912;-46
2023/09/22 20:09:30;;;;;;;;;;;;;;;;;;5056380;28;19967;-44
2023/09/22 20:11:55;;;;;;;;;;;;;;;;;;5069610;28;19919;-46
2023/09/22 20:14:21;;;;;;;;;;;;;;;;;;5074059;28;20279;-46
2023/09/22 20:16:47;;;;;;;;;;;;;;;;;;5073154;28;19962;-43
2023/09/22 20:19:13;;;;;;;;;;;;;;;;;;5074073;28;20015;-46
2023/09/22 20:21:39;;;;;;;;;;;;;;;;;;5073846;28;19912;-45
2023/09/22 20:24:05;;;;;;;;;;;;;;;;;;5073298;28;19913;-44
2023/09/22 20:26:32;;;;;;;;;;;;;;;;;;5074134;28;19909;-44
2023/09/22 20:29:00;;;;;;;;;;;;;;;;;;5073885;28;19904;-46
2023/09/22 20:31:26;;;;;;;;;;;;;;;;;;5073997;28;19909;-44
2023/09/22 20:33:52;;;;;;;;;;;;;;;;;;5073925;28;19924;-45
2023/09/22 20:36:18;;;;;;;;;;;;;;;;;;5073571;28;19930;-44
2023/09/22 20:38:44;;;;;;;;;;;;;;;;;;5073683;28;20343;-44
2023/09/22 20:41:10;;;;;;;;;;;;;;;;;;5073738;28;20007;-47
2023/09/22 20:43:38;;;;;;;;;;;;;;;;;;5073401;28;20103;-47
2023/09/22 20:46:06;;;;;;;;;;;;;;;;;;5072995;28;19920;-44
2023/09/22 20:48:32;;;;;;;;;;;;;;;;;;5055251;28;19958;-44
2023/09/22 20:50:58;;;;;;;;;;;;;;;;;;5073195;28;19913;-44
2023/09/22 20:53:26;;;;;;;;;;;;;;;;;;5054866;28;19909;-46
2023/09/22 20:55:54;;;;;;;;;;;;;;;;;;5063324;28;20383;-44
2023/09/22 20:58:21;;;;;;;;;;;;;;;;;;5071928;28;19920;-44
2023/09/22 21:00:48;;;;;;;;;;;;;;;;;;5070260;28;19920;-47
2023/09/22 21:03:19;;;;;;;;;;;;;;;;;;5071583;28;19918;-45
2023/09/22 21:05:45;;;;;;;;;;;;;;;;;;5072724;28;19915;-46
2023/09/22 21:08:12;;;;;;;;;;;;;;;;;;5066976;28;20431;-46
2023/09/22 21:10:38;;;;;;;;;;;;;;;;;;5052678;28;19909;-45
2023/09/22 21:13:05;;;;;;;;;;;;;;;;;;5053093;28;20004;-44
2023/09/22 21:15:32;;;;;;;;;;;;;;;;;;5053148;28;19959;-45
2023/09/22 21:17:58;;;;;;;;;;;;;;;;;;5052993;28;19962;-44
2023/09/22 21:20:24;;;;;;;;;;;;;;;;;;5059117;28;19920;-44
2023/09/22 21:22:50;;;;;;;;;;;;;;;;;;5073201;28;19990;-44
2023/09/22 21:25:17;;;;;;;;;;;;;;;;;;5073051;28;19995;-46
2023/09/22 21:27:43;;;;;;;;;;;;;;;;;;5072725;28;20386;-44
2023/09/22 21:30:08;;;;;;;;;;;;;;;;;;5072607;28;19916;-43
2023/09/22 21:32:36;;;;;;;;;;;;;;;;;;5072526;28;20057;-43
2023/09/22 21:35:02;;;;;;;;;;;;;;;;;;5070238;28;20459;-44
2023/09/22 21:37:28;;;;;;;;;;;;;;;;;;5070731;28;19910;-46
2023/09/22 21:39:55;;;;;;;;;;;;;;;;;;5062933;28;19924;-44
2023/09/22 21:42:20;;;;;;;;;;;;;;;;;;5070580;28;19955;-43
2023/09/22 21:44:47;;;;;;;;;;;;;;;;;;5070899;28;19939;-45
2023/09/22 21:47:12;;;;;;;;;;;;;;;;;;5070623;28;19908;-44
2023/09/22 21:49:38;;;;;;;;;;;;;;;;;;5070840;28;20362;-43
2023/09/22 21:52:04;;;;;;;;;;;;;;;;;;5071376;28;19956;-44
2023/09/22 21:54:30;;;;;;;;;;;;;;;;;;5071052;28;19909;-47
2023/09/22 21:56:56;;;;;;;;;;;;;;;;;;5070032;28;19927;-46
2023/09/22 21:59:23;;;;;;;;;;;;;;;;;;5069787;28;19966;-43
2023/09/22 22:01:49;;;;;;;;;;;;;;;;;;5069892;28;19908;-44
2023/09/22 22:04:15;;;;;;;;;;;;;;;;;;5070613;28;20275;-47
2023/09/22 22:06:43;;;;;;;;;;;;;;;;;;5070351;28;19942;-44
2023/09/22 22:09:10;;;;;;;;;;;;;;;;;;5070615;28;19919;-45
2023/09/22 22:11:40;;;;;;;;;;;;;;;;;;5070875;28;19913;-44
2023/09/22 22:14:09;;;;;;;;;;;;;;;;;;5070854;28;19908;-44
2023/09/22 22:16:35;;;;;;;;;;;;;;;;;;5070477;28;19999;-44
2023/09/22 22:19:01;;;;;;;;;;;;;;;;;;5069865;28;20003;-45
2023/09/22 22:21:27;;;;;;;;;;;;;;;;;;5069935;28;20024;-47
2023/09/22 22:23:53;;;;;;;;;;;;;;;;;;5069974;28;19909;-46
2023/09/22 22:26:19;;;;;;;;;;;;;;;;;;5068734;28;19952;-43
2023/09/22 22:28:45;;;;;;;;;;;;;;;;;;5069563;28;19939;-44
2023/09/22 22:31:11;;;;;;;;;;;;;;;;;;5062617;28;20368;-47
2023/09/22 22:33:38;;;;;;;;;;;;;;;;;;5049316;28;19909;-45
2023/09/22 22:36:03;;;;;;;;;;;;;;;;;;5050342;28;19930;-44
2023/09/22 22:38:30;;;;;;;;;;;;;;;;;;5059248;28;19912;-46
2023/09/22 22:40:57;;;;;;;;;;;;;;;;;;5069371;28;19912;-44
2023/09/22 22:43:24;;;;;;;;;;;;;;;;;;5069473;28;19920;-44
2023/09/22 22:45:50;;;;;;;;;;;;;;;;;;5069581;28;19914;-44
2023/09/22 22:48:16;;;;;;;;;;;;;;;;;;5059343;28;19950;-44
2023/09/22 22:50:42;;;;;;;;;;;;;;;;;;5049308;28;20383;-45
2023/09/22 22:53:09;;;;;;;;;;;;;;;;;;5050240;28;19909;-45
2023/09/22 22:55:35;;;;;;;;;;;;;;;;;;5064485;28;19919;-46
2023/09/22 22:58:05;;;;;;;;;;;;;;;;;;5053977;28;19913;-44
